Time;durP1;ratioP1;P1;durP2;ratioP2;P2;SDS_P1;SDS_P2;PMS_P1;PMS_P2;Temp;Humidity;BMP_temperature;BMP_pressure;BME280_temperature;BME280_humidity;BME280_pressure;Samples;Min_cycle;Max_cycle;Signal;HPM_P1;HPM_P2
2022/02/24 21:10:24;;;;;;;51.65;23.42;;;;;;;4.28;83.80;101040.36;1745433;81;21640;-62
2022/02/24 21:12:55;;;;;;;54.15;24.47;;;;;;;4.28;83.89;101041.72;1758262;80;21118;-63
2022/02/24 21:15:25;;;;;;;51.90;24.32;;;;;;;4.29;83.92;101039.36;1743834;80;21561;-63
2022/02/24 21:17:55;;;;;;;54.95;24.80;;;;;;;4.27;83.94;101044.07;1748506;80;21080;-63
2022/02/24 21:20:25;;;;;;;53.95;25.23;;;;;;;4.24;84.06;101035.72;1754489;79;21126;-63
2022/02/24 21:22:54;;;;;;;57.70;26.30;;;;;;;4.22;84.15;101036.36;1745579;80;21094;-62
2022/02/24 21:25:22;;;;;;;54.00;24.00;;;;;;;4.21;84.20;101037.85;1763782;80;21132;-63
2022/02/24 21:27:51;;;;;;;51.02;23.55;;;;;;;4.21;84.36;101040.56;1753136;80;21106;-64
2022/02/24 21:30:19;;;;;;;48.33;24.10;;;;;;;4.21;84.33;101037.85;1754298;80;21121;-63
2022/02/24 21:32:48;;;;;;;47.20;23.67;;;;;;;4.18;84.35;101035.42;1759249;79;21106;-62
2022/02/24 21:35:17;;;;;;;56.25;25.43;;;;;;;4.15;84.46;101036.56;1765787;79;21070;-63
2022/02/24 21:37:46;;;;;;;51.08;23.52;;;;;;;4.14;84.53;101041.63;1760594;80;21125;-62
2022/02/24 21:40:14;;;;;;;50.28;23.75;;;;;;;4.14;84.62;101038.92;1759398;80;21046;-62
2022/02/24 21:42:44;;;;;;;51.35;23.25;;;;;;;4.13;84.61;101040.77;1752682;80;21147;-62
2022/02/24 21:45:13;;;;;;;55.85;25.17;;;;;;;4.12;84.69;101037.70;1753038;80;21502;-63
2022/02/24 21:47:46;;;;;;;53.15;24.67;;;;;;;4.15;84.80;101041.98;1753067;80;21198;-62
2022/02/24 21:50:16;;;;;;;51.65;24.70;;;;;;;4.16;84.84;101036.06;1758652;80;21106;-63
2022/02/24 21:52:44;;;;;;;54.35;25.52;;;;;;;4.16;84.87;101028.78;1762847;80;21081;-63
2022/02/24 21:55:13;;;;;;;51.25;24.12;;;;;;;4.18;84.91;101029.50;1757703;80;21015;-62
2022/02/24 21:57:43;;;;;;;48.52;23.57;;;;;;;4.21;84.96;101028.36;1758320;80;21110;-62
2022/02/24 22:00:14;;;;;;;51.92;24.20;;;;;;;4.20;84.84;101023.44;1765449;80;21090;-62
2022/02/24 22:02:43;;;;;;;52.58;24.20;;;;;;;4.18;84.86;101020.51;1759518;80;21082;-64
2022/02/24 22:05:14;;;;;;;52.15;25.05;;;;;;;4.18;84.93;101014.59;1765898;80;21125;-63
2022/02/24 22:07:46;;;;;;;50.70;24.32;;;;;;;4.20;84.91;101022.58;1756216;80;21744;-63
2022/02/24 22:10:14;;;;;;;50.48;22.98;;;;;;;4.19;84.78;101016.80;1780766;80;21466;-63
2022/02/24 22:12:43;;;;;;;49.58;22.65;;;;;;;4.19;84.76;101012.73;1759285;80;21034;-63
2022/02/24 22:15:13;;;;;;;49.15;23.83;;;;;;;4.20;84.73;101009.87;1760404;80;21592;-63
2022/02/24 22:17:42;;;;;;;51.28;24.63;;;;;;;4.23;84.71;101001.95;1742521;80;20980;-63
2022/02/24 22:20:12;;;;;;;51.37;24.02;;;;;;;4.25;84.69;100999.95;1757490;81;21058;-62
2022/02/24 22:22:41;;;;;;;51.10;25.23;;;;;;;4.25;84.65;100996.74;1740018;80;21130;-63
2022/02/24 22:25:10;;;;;;;47.23;22.52;;;;;;;4.27;84.71;100990.68;1761977;80;21983;-63
2022/02/24 22:27:40;;;;;;;45.95;22.62;;;;;;;4.28;84.63;100985.61;1762300;80;21018;-63
2022/02/24 22:30:11;;;;;;;45.98;22.75;;;;;;;4.30;84.52;100989.53;1745547;81;21062;-63
2022/02/24 22:32:40;;;;;;;51.92;23.35;;;;;;;4.29;84.51;100983.25;1754140;80;21160;-62
2022/02/24 22:35:09;;;;;;;47.13;22.40;;;;;;;4.31;84.50;100983.11;1766274;80;21027;-63
2022/02/24 22:37:38;;;;;;;43.80;21.85;;;;;;;4.29;84.44;100983.25;1756984;81;21011;-63
2022/02/24 22:40:08;;;;;;;48.30;22.30;;;;;;;4.29;84.36;100976.97;1744366;80;21034;-63
2022/02/24 22:42:38;;;;;;;45.63;21.65;;;;;;;4.29;84.28;100978.33;1753830;81;21081;-63
2022/02/24 22:45:07;;;;;;;45.65;21.90;;;;;;;4.28;84.12;100990.18;1754980;80;21057;-62
2022/02/24 22:47:37;;;;;;;44.95;21.82;;;;;;;4.24;84.00;100980.11;1775048;79;21474;-63
2022/02/24 22:50:07;;;;;;;44.45;21.52;;;;;;;4.21;83.94;100978.19;1756540;80;21035;-63
2022/02/24 22:52:36;;;;;;;44.05;22.20;;;;;;;4.17;83.92;100967.27;1752332;80;21097;-62
2022/02/24 22:55:06;;;;;;;45.73;20.57;;;;;;;4.13;84.01;100971.62;1755247;80;21010;-64
2022/02/24 22:57:35;;;;;;;37.35;18.87;;;;;;;4.15;84.06;100966.05;1753048;80;21093;-64
2022/02/24 23:00:08;;;;;;;39.83;19.85;;;;;;;4.12;83.92;100961.77;1767806;80;21034;-62
2022/02/24 23:05:33;;;;;;;35.85;18.25;;;;;;;4.09;83.86;100951.20;1772286;80;21113;-62
2022/02/24 23:08:03;;;;;;;38.17;19.55;;;;;;;4.07;83.87;100956.41;1758927;80;21104;-62
2022/02/24 23:10:33;;;;;;;35.35;16.93;;;;;;;4.03;83.75;100949.06;1751442;80;21086;-63
2022/02/24 23:13:03;;;;;;;34.00;16.70;;;;;;;4.03;83.75;100948.20;1754388;80;21591;-63
2022/02/24 23:15:33;;;;;;;37.08;18.85;;;;;;;4.02;83.63;100940.58;1762450;80;21046;-62
2022/02/24 23:18:03;;;;;;;32.48;17.10;;;;;;;4.00;83.69;100937.15;1760214;80;21027;-62
2022/02/24 23:20:33;;;;;;;32.73;17.90;;;;;;;4.01;83.65;100934.80;1763092;80;21024;-63
2022/02/24 23:23:04;;;;;;;34.15;17.12;;;;;;;3.99;83.57;100930.52;1754921;80;21062;-63
2022/02/24 23:25:34;;;;;;;36.08;17.10;;;;;;;3.99;83.58;100925.95;1764773;80;21055;-62
2022/02/24 23:28:05;;;;;;;33.38;17.90;;;;;;;4.00;83.51;100928.16;1753672;80;21014;-63
2022/02/24 23:30:36;;;;;;;30.55;16.95;;;;;;;3.98;83.43;100926.95;1751681;80;21625;-63
2022/02/24 23:33:06;;;;;;;31.35;16.95;;;;;;;3.98;83.49;100924.23;1753023;80;21067;-61
2022/02/24 23:35:37;;;;;;;34.20;16.75;;;;;;;3.96;83.46;100923.52;1752147;80;21094;-63
2022/02/24 23:38:07;;;;;;;32.38;16.40;;;;;;;3.91;83.37;100919.52;1752123;80;21019;-62
2022/02/24 23:40:39;;;;;;;32.30;17.17;;;;;;;3.86;83.45;100920.41;1750678;81;21599;-63
2022/02/24 23:43:09;;;;;;;33.33;17.35;;;;;;;3.83;83.49;100906.65;1748612;81;21071;-62
2022/02/24 23:45:39;;;;;;;31.45;16.75;;;;;;;3.85;83.54;100917.34;1740805;81;21075;-62
2022/02/24 23:48:09;;;;;;;33.10;17.48;;;;;;;3.84;83.65;100911.07;1749770;80;21050;-62
2022/02/24 23:50:39;;;;;;;32.10;16.77;;;;;;;3.85;83.73;100906.01;1744448;80;21605;-64
2022/02/24 23:53:08;;;;;;;31.62;17.25;;;;;;;3.88;83.83;100905.72;1766383;79;21051;-63
2022/02/24 23:55:39;;;;;;;36.93;16.75;;;;;;;3.91;83.77;100906.83;1778158;80;20980;-63
2022/02/24 23:58:11;;;;;;;34.53;16.65;;;;;;;3.93;83.74;100907.54;1746653;81;21050;-63
